Trabuco, CA (92679)

2:16 AM PDT on May 22, 2015 (GMT -0700)
Saddle Back Valley | | Change Station
CLOSE
Current Station
Personal Weather Station
Location: Rancho Santa Margarita, CA
Elevation: 1109 ft
Nearby Weather Stations

Elev 1109 ft 33.65 °N, 117.59 °W | Updated 6 seconds ago

Overcast
Overcast
55.1 °F
Feels Like 55.1 °F
N
0.0
Wind Variable Wind from WNW
Gusts 0.0 mph

Today
High -- | Low -- °F
--% Chance of Precip.
Yesterday
High -- | Low -- °F
Precip. -- in
5:45 AM 7:49 PM
Waxing Crescent, 20% visible
Pressure 29.99 in
Visibility 10.0 miles
Clouds Mostly Cloudy 7000 ft
Dew Point 50 °F
Humidity 82%
Rainfall 0.00 in
Snow Depth Not available.
UV 0 out of 12
Pollen 4.80 out of 12
Air Quality Not available.
Flu Activity Sporadic
METAR KSNA 220853Z AUTO 28003KT 10SM BKN070 16/11 A2999 RMK AO2 SLP153 T01610106 58003 TSNO

More Conditions Fewer Conditions

Pressure 29.99 in
Visibility 10.0 miles
Clouds Mostly Cloudy 7000 ft
Dew Point 50 °F
Humidity 82%
Rainfall 0.00 in
Snow Depth Not available.
UV 0 out of 12
Pollen 4.80 out of 12
Air Quality Not available.
Flu Activity Sporadic
METAR KSNA 220853Z AUTO 28003KT 10SM BKN070 16/11 A2999 RMK AO2 SLP153 T01610106 58003 TSNO

More Conditions Fewer Conditions

10-Day Weather Forecast

Almanac

Astronomy

May. 22, 2015 Rise Set
Actual Time
Civil Twilight
Nautical Twilight
Astronomical Twilight
Moon
Length of Visible Light
Length of Day
Tomorrow will be .
, % of the Moon is Illuminated

Today's Extremes

State Highs State Lows

Community

WunderPhotos

Upload Photos

1,823,195 photos uploaded!

WunderBlogs® & News

Nearby

Air Quality

  Air Quality AQ Index Pollutant
Not available.

Snow Depth

Station Depth Elevation

Earthquake Activity

City Distance Mag. Time & Date
Minimum magnitude displayed is 2.5.

Coastal Water Temperatures

Place Temperature

Stations

Nearby Weather Stations

Station Location Temp. Windchill Dew Point Humidity Wind Precip. Elev Updated Type